sensor_id;sensor_type;location;lat;lon;timestamp;pressure;altitude;pressure_sealevel;temperature;humidity
74103;BME280;62853;46.166;3.640;2024-01-11T00:02:10;103031.88;;;1.04;100.00
74103;BME280;62853;46.166;3.640;2024-01-11T00:04:35;103029.28;;;1.04;100.00
74103;BME280;62853;46.166;3.640;2024-01-11T00:07:00;103035.38;;;1.05;100.00
74103;BME280;62853;46.166;3.640;2024-01-11T00:09:26;103035.34;;;1.03;100.00
74103;BME280;62853;46.166;3.640;2024-01-11T00:11:51;103033.53;;;1.01;100.00
74103;BME280;62853;46.166;3.640;2024-01-11T00:14:16;103040.47;;;1.00;100.00
74103;BME280;62853;46.166;3.640;2024-01-11T00:16:42;103037.84;;;0.99;100.00
74103;BME280;62853;46.166;3.640;2024-01-11T00:19:07;103033.44;;;0.96;100.00
74103;BME280;62853;46.166;3.640;2024-01-11T00:21:32;103024.75;;;0.94;100.00
74103;BME280;62853;46.166;3.640;2024-01-11T00:23:58;103030.78;;;0.91;100.00
74103;BME280;62853;46.166;3.640;2024-01-11T00:26:23;103028.22;;;0.93;100.00
74103;BME280;62853;46.166;3.640;2024-01-11T00:28:48;103021.22;;;0.90;100.00
74103;BME280;62853;46.166;3.640;2024-01-11T00:31:14;103023.78;;;0.89;100.00
74103;BME280;62853;46.166;3.640;2024-01-11T00:33:39;103027.28;;;0.89;100.00
74103;BME280;62853;46.166;3.640;2024-01-11T00:36:05;103031.56;;;0.89;100.00
74103;BME280;62853;46.166;3.640;2024-01-11T00:38:30;103034.16;;;0.89;100.00
74103;BME280;62853;46.166;3.640;2024-01-11T00:40:55;103038.47;;;0.87;100.00
74103;BME280;62853;46.166;3.640;2024-01-11T00:43:21;103030.59;;;0.84;100.00
74103;BME280;62853;46.166;3.640;2024-01-11T00:45:46;103029.75;;;0.83;100.00
74103;BME280;62853;46.166;3.640;2024-01-11T00:48:12;103029.75;;;0.83;100.00
74103;BME280;62853;46.166;3.640;2024-01-11T00:50:37;103032.44;;;0.88;100.00
74103;BME280;62853;46.166;3.640;2024-01-11T00:53:03;103033.25;;;0.87;100.00
74103;BME280;62853;46.166;3.640;2024-01-11T00:55:29;103032.38;;;0.85;100.00
74103;BME280;62853;46.166;3.640;2024-01-11T00:57:54;103035.78;;;0.84;100.00
74103;BME280;62853;46.166;3.640;2024-01-11T01:00:19;103038.34;;;0.82;100.00
74103;BME280;62853;46.166;3.640;2024-01-11T01:02:45;103037.44;;;0.80;100.00
74103;BME280;62853;46.166;3.640;2024-01-11T01:05:11;103040.00;;;0.79;100.00
74103;BME280;62853;46.166;3.640;2024-01-11T01:07:37;103032.19;;;0.77;100.00
74103;BME280;62853;46.166;3.640;2024-01-11T01:10:02;103037.34;;;0.76;100.00
74103;BME280;62853;46.166;3.640;2024-01-11T01:12:28;103035.66;;;0.76;100.00
74103;BME280;62853;46.166;3.640;2024-01-11T01:14:54;103036.44;;;0.73;100.00
74103;BME280;62853;46.166;3.640;2024-01-11T01:17:21;103039.00;;;0.72;100.00
74103;BME280;62853;46.166;3.640;2024-01-11T01:19:47;103051.94;;;0.70;100.00
74103;BME280;62853;46.166;3.640;2024-01-11T01:22:12;103046.75;;;0.70;100.00
74103;BME280;62853;46.166;3.640;2024-01-11T01:24:37;103045.84;;;0.68;100.00
74103;BME280;62853;46.166;3.640;2024-01-11T01:27:03;103054.50;;;0.69;100.00
74103;BME280;62853;46.166;3.640;2024-01-11T01:29:28;103057.09;;;0.69;100.00
74103;BME280;62853;46.166;3.640;2024-01-11T01:31:54;103052.75;;;0.68;100.00
74103;BME280;62853;46.166;3.640;2024-01-11T01:34:19;103056.19;;;0.67;100.00
74103;BME280;62853;46.166;3.640;2024-01-11T01:36:44;103056.19;;;0.67;100.00
74103;BME280;62853;46.166;3.640;2024-01-11T01:39:11;103055.25;;;0.63;100.00
74103;BME280;62853;46.166;3.640;2024-01-11T01:41:36;103056.97;;;0.63;100.00
74103;BME280;62853;46.166;3.640;2024-01-11T01:44:02;103055.19;;;0.62;100.00
74103;BME280;62853;46.166;3.640;2024-01-11T01:46:28;103064.66;;;0.60;100.00
74103;BME280;62853;46.166;3.640;2024-01-11T01:48:54;103067.22;;;0.58;100.00
74103;BME280;62853;46.166;3.640;2024-01-11T01:51:21;103072.38;;;0.57;100.00
74103;BME280;62853;46.166;3.640;2024-01-11T01:53:48;103077.59;;;0.58;100.00
74103;BME280;62853;46.166;3.640;2024-01-11T01:56:13;103080.16;;;0.57;100.00
74103;BME280;62853;46.166;3.640;2024-01-11T01:58:39;103069.75;;;0.55;100.00
74103;BME280;62853;46.166;3.640;2024-01-11T02:01:05;103084.44;;;0.54;100.00
74103;BME280;62853;46.166;3.640;2024-01-11T02:03:30;103078.34;;;0.54;100.00
74103;BME280;62853;46.166;3.640;2024-01-11T02:05:57;103091.31;;;0.52;100.00
74103;BME280;62853;46.166;3.640;2024-01-11T02:08:24;103094.72;;;0.51;100.00
74103;BME280;62853;46.166;3.640;2024-01-11T02:10:51;103092.97;;;0.50;100.00
74103;BME280;62853;46.166;3.640;2024-01-11T02:13:16;103099.84;;;0.48;100.00
74103;BME280;62853;46.166;3.640;2024-01-11T02:15:42;103087.69;;;0.46;100.00
74103;BME280;62853;46.166;3.640;2024-01-11T02:18:07;103084.16;;;0.44;100.00
74103;BME280;62853;46.166;3.640;2024-01-11T02:20:33;103078.97;;;0.44;100.00
74103;BME280;62853;46.166;3.640;2024-01-11T02:23:03;103070.31;;;0.42;100.00
74103;BME280;62853;46.166;3.640;2024-01-11T02:25:30;103067.66;;;0.40;100.00
74103;BME280;62853;46.166;3.640;2024-01-11T02:27:56;103069.41;;;0.40;100.00
74103;BME280;62853;46.166;3.640;2024-01-11T02:30:21;103069.34;;;0.38;100.00
74103;BME280;62853;46.166;3.640;2024-01-11T02:32:48;103067.59;;;0.35;100.00
74103;BME280;62853;46.166;3.640;2024-01-11T02:35:15;103059.81;;;0.35;100.00
74103;BME280;62853;46.166;3.640;2024-01-11T02:37:41;103075.31;;;0.34;100.00
74103;BME280;62853;46.166;3.640;2024-01-11T02:40:07;103076.13;;;0.31;100.00
74103;BME280;62853;46.166;3.640;2024-01-11T02:42:33;103082.13;;;0.30;100.00
74103;BME280;62853;46.166;3.640;2024-01-11T02:44:59;103088.16;;;0.29;100.00
74103;BME280;62853;46.166;3.640;2024-01-11T02:47:24;103088.13;;;0.28;100.00
74103;BME280;62853;46.166;3.640;2024-01-11T02:49:49;103084.66;;;0.27;100.00
74103;BME280;62853;46.166;3.640;2024-01-11T02:52:15;103083.78;;;0.27;100.00
74103;BME280;62853;46.166;3.640;2024-01-11T02:54:40;103084.59;;;0.24;100.00
74103;BME280;62853;46.166;3.640;2024-01-11T02:57:06;103080.28;;;0.25;100.00
74103;BME280;62853;46.166;3.640;2024-01-11T02:59:32;103081.13;;;0.24;100.00
74103;BME280;62853;46.166;3.640;2024-01-11T03:01:57;103081.91;;;0.21;100.00
74103;BME280;62853;46.166;3.640;2024-01-11T03:04:23;103077.56;;;0.20;100.00
74103;BME280;62853;46.166;3.640;2024-01-11T03:06:48;103087.03;;;0.18;100.00
74103;BME280;62853;46.166;3.640;2024-01-11T03:09:13;103086.16;;;0.17;100.00
74103;BME280;62853;46.166;3.640;2024-01-11T03:11:39;103080.94;;;0.16;100.00
74103;BME280;62853;46.166;3.640;2024-01-11T03:14:04;103075.75;;;0.16;100.00
74103;BME280;62853;46.166;3.640;2024-01-11T03:16:30;103080.06;;;0.15;100.00
74103;BME280;62853;46.166;3.640;2024-01-11T03:18:55;103075.66;;;0.13;100.00
74103;BME280;62853;46.166;3.640;2024-01-11T03:21:20;103075.66;;;0.13;100.00
74103;BME280;62853;46.166;3.640;2024-01-11T03:23:46;103075.63;;;0.11;100.00
74103;BME280;62853;46.166;3.640;2024-01-11T03:26:16;103082.53;;;0.11;100.00
74103;BME280;62853;46.166;3.640;2024-01-11T03:28:42;103082.50;;;0.09;100.00
74103;BME280;62853;46.166;3.640;2024-01-11T03:31:08;103080.72;;;0.08;100.00
74103;BME280;62853;46.166;3.640;2024-01-11T03:33:34;103080.72;;;0.08;100.00
74103;BME280;62853;46.166;3.640;2024-01-11T03:35:59;103077.22;;;0.06;100.00
74103;BME280;62853;46.166;3.640;2024-01-11T03:38:25;103076.34;;;0.06;100.00
74103;BME280;62853;46.166;3.640;2024-01-11T03:40:51;103079.78;;;0.05;100.00
74103;BME280;62853;46.166;3.640;2024-01-11T03:43:17;103071.13;;;0.04;100.00
74103;BME280;62853;46.166;3.640;2024-01-11T03:45:43;103078.00;;;0.02;100.00
74103;BME280;62853;46.166;3.640;2024-01-11T03:48:08;103078.00;;;0.02;100.00
74103;BME280;62853;46.166;3.640;2024-01-11T03:50:33;103080.56;;;0.01;100.00
74103;BME280;62853;46.166;3.640;2024-01-11T03:52:59;103079.69;;;0.00;100.00
74103;BME280;62853;46.166;3.640;2024-01-11T03:55:24;103073.59;;;-0.01;100.00
74103;BME280;62853;46.166;3.640;2024-01-11T03:57:51;103071.88;;;-0.02;100.00
74103;BME280;62853;46.166;3.640;2024-01-11T04:00:16;103064.88;;;-0.04;100.00
74103;BME280;62853;46.166;3.640;2024-01-11T04:02:42;103078.66;;;-0.05;100.00
74103;BME280;62853;46.166;3.640;2024-01-11T04:05:07;103076.94;;;-0.06;100.00
74103;BME280;62853;46.166;3.640;2024-01-11T04:07:32;103084.66;;;-0.08;100.00
74103;BME280;62853;46.166;3.640;2024-01-11T04:09:58;103092.44;;;-0.08;100.00
74103;BME280;62853;46.166;3.640;2024-01-11T04:12:24;103094.09;;;-0.10;100.00
74103;BME280;62853;46.166;3.640;2024-01-11T04:14:49;103091.53;;;-0.10;100.00
74103;BME280;62853;46.166;3.640;2024-01-11T04:17:14;103089.75;;;-0.11;100.00
74103;BME280;62853;46.166;3.640;2024-01-11T04:19:40;103088.00;;;-0.12;100.00
74103;BME280;62853;46.166;3.640;2024-01-11T04:22:05;103089.66;;;-0.14;100.00
74103;BME280;62853;46.166;3.640;2024-01-11T04:24:30;103100.03;;;-0.14;100.00
74103;BME280;62853;46.166;3.640;2024-01-11T04:26:56;103089.63;;;-0.15;100.00
74103;BME280;62853;46.166;3.640;2024-01-11T04:29:21;103099.13;;;-0.16;100.00
74103;BME280;62853;46.166;3.640;2024-01-11T04:31:46;103111.97;;;-0.19;100.00
74103;BME280;62853;46.166;3.640;2024-01-11T04:34:12;103114.56;;;-0.19;100.00
74103;BME280;62853;46.166;3.640;2024-01-11T04:36:37;103118.84;;;-0.21;100.00
74103;BME280;62853;46.166;3.640;2024-01-11T04:39:04;103109.25;;;-0.24;100.00
74103;BME280;62853;46.166;3.640;2024-01-11T04:41:29;103119.63;;;-0.24;100.00
74103;BME280;62853;46.166;3.640;2024-01-11T04:43:54;103126.53;;;-0.24;100.00
74103;BME280;62853;46.166;3.640;2024-01-11T04:46:21;103126.47;;;-0.26;100.00
74103;BME280;62853;46.166;3.640;2024-01-11T04:48:48;103131.66;;;-0.26;100.00
74103;BME280;62853;46.166;3.640;2024-01-11T04:51:17;103135.00;;;-0.30;100.00
74103;BME280;62853;46.166;3.640;2024-01-11T04:53:44;103130.69;;;-0.29;100.00
74103;BME280;62853;46.166;3.640;2024-01-11T04:56:12;103134.97;;;-0.31;100.00
74103;BME280;62853;46.166;3.640;2024-01-11T04:58:39;103130.63;;;-0.32;100.00
74103;BME280;62853;46.166;3.640;2024-01-11T05:01:06;103124.53;;;-0.34;100.00
74103;BME280;62853;46.166;3.640;2024-01-11T05:03:31;103119.34;;;-0.34;100.00
74103;BME280;62853;46.166;3.640;2024-01-11T05:05:58;103129.69;;;-0.34;100.00
74103;BME280;62853;46.166;3.640;2024-01-11T05:08:23;103134.84;;;-0.36;100.00
74103;BME280;62853;46.166;3.640;2024-01-11T05:10:49;103134.88;;;-0.34;100.00
74103;BME280;62853;46.166;3.640;2024-01-11T05:13:15;103131.38;;;-0.36;100.00
74103;BME280;62853;46.166;3.640;2024-01-11T05:15:40;103133.06;;;-0.39;100.00
74103;BME280;62853;46.166;3.640;2024-01-11T05:18:06;103136.50;;;-0.38;100.00
74103;BME280;62853;46.166;3.640;2024-01-11T05:20:31;103138.22;;;-0.39;100.00
74103;BME280;62853;46.166;3.640;2024-01-11T05:22:56;103133.94;;;-0.38;100.00
74103;BME280;62853;46.166;3.640;2024-01-11T05:25:22;103143.41;;;-0.39;100.00
74103;BME280;62853;46.166;3.640;2024-01-11T05:27:47;103145.97;;;-0.40;100.00
74103;BME280;62853;46.166;3.640;2024-01-11T05:30:12;103145.97;;;-0.40;100.00
74103;BME280;62853;46.166;3.640;2024-01-11T05:32:38;103145.06;;;-0.41;100.00
74103;BME280;62853;46.166;3.640;2024-01-11T05:35:04;103151.03;;;-0.43;100.00
74103;BME280;62853;46.166;3.640;2024-01-11T05:37:29;103150.19;;;-0.44;100.00
74103;BME280;62853;46.166;3.640;2024-01-11T05:39:54;103156.22;;;-0.43;100.00
74103;BME280;62853;46.166;3.640;2024-01-11T05:42:22;103157.00;;;-0.46;100.00
74103;BME280;62853;46.166;3.640;2024-01-11T05:44:48;103161.31;;;-0.46;100.00
74103;BME280;62853;46.166;3.640;2024-01-11T05:47:13;103170.78;;;-0.47;100.00
74103;BME280;62853;46.166;3.640;2024-01-11T05:49:40;103177.66;;;-0.49;100.00
74103;BME280;62853;46.166;3.640;2024-01-11T05:52:05;103191.47;;;-0.48;100.00
74103;BME280;62853;46.166;3.640;2024-01-11T05:54:30;103193.19;;;-0.49;100.00
74103;BME280;62853;46.166;3.640;2024-01-11T05:56:56;103195.72;;;-0.50;100.00
74103;BME280;62853;46.166;3.640;2024-01-11T05:59:23;103192.19;;;-0.52;100.00
74103;BME280;62853;46.166;3.640;2024-01-11T06:01:48;103185.28;;;-0.53;100.00
74103;BME280;62853;46.166;3.640;2024-01-11T06:04:14;103161.97;;;-0.53;100.00
74103;BME280;62853;46.166;3.640;2024-01-11T06:06:40;103172.38;;;-0.52;100.00
74103;BME280;62853;46.166;3.640;2024-01-11T06:09:05;103179.22;;;-0.54;100.00
74103;BME280;62853;46.166;3.640;2024-01-11T06:11:30;103183.50;;;-0.54;100.00
74103;BME280;62853;46.166;3.640;2024-01-11T06:13:56;103193.84;;;-0.54;100.00
74103;BME280;62853;46.166;3.640;2024-01-11T06:16:22;103194.72;;;-0.55;100.00
74103;BME280;62853;46.166;3.640;2024-01-11T06:18:47;103192.94;;;-0.57;100.00
74103;BME280;62853;46.166;3.640;2024-01-11T06:21:13;103202.44;;;-0.57;100.00
74103;BME280;62853;46.166;3.640;2024-01-11T06:23:40;103210.19;;;-0.57;100.00
74103;BME280;62853;46.166;3.640;2024-01-11T06:26:07;103214.41;;;-0.59;100.00
74103;BME280;62853;46.166;3.640;2024-01-11T06:28:32;103219.59;;;-0.59;100.00
74103;BME280;62853;46.166;3.640;2024-01-11T06:30:58;103207.47;;;-0.62;100.00
74103;BME280;62853;46.166;3.640;2024-01-11T06:33:23;103204.91;;;-0.60;100.00
74103;BME280;62853;46.166;3.640;2024-01-11T06:35:48;103203.09;;;-0.63;100.00
74103;BME280;62853;46.166;3.640;2024-01-11T06:38:13;103212.59;;;-0.63;100.00
74103;BME280;62853;46.166;3.640;2024-01-11T06:40:39;103215.16;;;-0.63;100.00
74103;BME280;62853;46.166;3.640;2024-01-11T06:43:04;103216.88;;;-0.64;100.00
74103;BME280;62853;46.166;3.640;2024-01-11T06:45:30;103191.78;;;-0.66;100.00
74103;BME280;62853;46.166;3.640;2024-01-11T06:47:55;103194.38;;;-0.66;100.00
74103;BME280;62853;46.166;3.640;2024-01-11T06:50:22;103194.38;;;-0.66;100.00
74103;BME280;62853;46.166;3.640;2024-01-11T06:52:47;103193.50;;;-0.67;100.00
74103;BME280;62853;46.166;3.640;2024-01-11T06:55:12;103190.88;;;-0.68;100.00
74103;BME280;62853;46.166;3.640;2024-01-11T06:57:38;103201.22;;;-0.68;100.00
74103;BME280;62853;46.166;3.640;2024-01-11T07:00:04;103203.81;;;-0.68;100.00
74103;BME280;62853;46.166;3.640;2024-01-11T07:02:29;103204.56;;;-0.71;100.00
74103;BME280;62853;46.166;3.640;2024-01-11T07:04:54;103205.44;;;-0.72;100.00
74103;BME280;62853;46.166;3.640;2024-01-11T07:07:20;103214.06;;;-0.71;100.00
74103;BME280;62853;46.166;3.640;2024-01-11T07:09:45;103212.28;;;-0.74;100.00
74103;BME280;62853;46.166;3.640;2024-01-11T07:12:11;103222.56;;;-0.76;100.00
74103;BME280;62853;46.166;3.640;2024-01-11T07:14:36;103226.03;;;-0.75;100.00
74103;BME280;62853;46.166;3.640;2024-01-11T07:17:01;103219.94;;;-0.77;100.00
74103;BME280;62853;46.166;3.640;2024-01-11T07:19:27;103217.34;;;-0.77;100.00
74103;BME280;62853;46.166;3.640;2024-01-11T07:21:52;103219.03;;;-0.79;100.00
74103;BME280;62853;46.166;3.640;2024-01-11T07:24:18;103230.22;;;-0.79;100.00
74103;BME280;62853;46.166;3.640;2024-01-11T07:26:44;103233.66;;;-0.80;100.00
74103;BME280;62853;46.166;3.640;2024-01-11T07:29:09;103242.25;;;-0.81;100.00
74103;BME280;62853;46.166;3.640;2024-01-11T07:31:34;103240.50;;;-0.82;100.00
74103;BME280;62853;46.166;3.640;2024-01-11T07:34:00;103230.09;;;-0.83;100.00
74103;BME280;62853;46.166;3.640;2024-01-11T07:36:25;103230.03;;;-0.85;100.00
74103;BME280;62853;46.166;3.640;2024-01-11T07:38:51;103231.81;;;-0.84;100.00
74103;BME280;62853;46.166;3.640;2024-01-11T07:41:16;103229.16;;;-0.85;100.00
74103;BME280;62853;46.166;3.640;2024-01-11T07:43:42;103233.47;;;-0.86;100.00
74103;BME280;62853;46.166;3.640;2024-01-11T07:46:08;103238.66;;;-0.86;100.00
74103;BME280;62853;46.166;3.640;2024-01-11T07:48:34;103231.69;;;-0.87;100.00
74103;BME280;62853;46.166;3.640;2024-01-11T07:51:00;103239.41;;;-0.88;100.00
74103;BME280;62853;46.166;3.640;2024-01-11T07:53:25;103233.38;;;-0.89;100.00
74103;BME280;62853;46.166;3.640;2024-01-11T07:55:51;103233.38;;;-0.89;100.00
74103;BME280;62853;46.166;3.640;2024-01-11T07:58:16;103236.78;;;-0.90;100.00
74103;BME280;62853;46.166;3.640;2024-01-11T08:00:42;103233.38;;;-0.89;100.00
74103;BME280;62853;46.166;3.640;2024-01-11T08:03:07;103241.94;;;-0.90;100.00
74103;BME280;62853;46.166;3.640;2024-01-11T08:05:34;103241.94;;;-0.90;100.00
74103;BME280;62853;46.166;3.640;2024-01-11T08:07:59;103250.56;;;-0.89;100.00
74103;BME280;62853;46.166;3.640;2024-01-11T08:10:27;103250.63;;;-0.88;100.00
74103;BME280;62853;46.166;3.640;2024-01-11T08:12:52;103260.97;;;-0.88;100.00
74103;BME280;62853;46.166;3.640;2024-01-11T08:15:18;103254.06;;;-0.89;100.00
74103;BME280;62853;46.166;3.640;2024-01-11T08:17:46;103246.34;;;-0.87;100.00
74103;BME280;62853;46.166;3.640;2024-01-11T08:20:12;103240.38;;;-0.85;100.00
74103;BME280;62853;46.166;3.640;2024-01-11T08:22:43;103234.38;;;-0.84;100.00
74103;BME280;62853;46.166;3.640;2024-01-11T08:25:09;103239.63;;;-0.82;100.00
74103;BME280;62853;46.166;3.640;2024-01-11T08:27:35;103224.09;;;-0.82;100.00
74103;BME280;62853;46.166;3.640;2024-01-11T08:30:00;103215.47;;;-0.81;100.00
74103;BME280;62853;46.166;3.640;2024-01-11T08:32:26;103212.06;;;-0.80;100.00
74103;BME280;62853;46.166;3.640;2024-01-11T08:34:51;103212.94;;;-0.80;100.00
74103;BME280;62853;46.166;3.640;2024-01-11T08:37:17;103206.09;;;-0.78;100.00
74103;BME280;62853;46.166;3.640;2024-01-11T08:39:42;103220.81;;;-0.77;100.00
74103;BME280;62853;46.166;3.640;2024-01-11T08:42:08;103218.22;;;-0.77;100.00
74103;BME280;62853;46.166;3.640;2024-01-11T08:44:33;103225.25;;;-0.72;100.00
74103;BME280;62853;46.166;3.640;2024-01-11T08:46:58;103230.50;;;-0.69;100.00
74103;BME280;62853;46.166;3.640;2024-01-11T08:49:25;103231.44;;;-0.67;100.00
74103;BME280;62853;46.166;3.640;2024-01-11T08:51:50;103235.78;;;-0.66;100.00
74103;BME280;62853;46.166;3.640;2024-01-11T08:54:16;103234.16;;;-0.63;100.00
74103;BME280;62853;46.166;3.640;2024-01-11T08:56:44;103240.28;;;-0.59;100.00
74103;BME280;62853;46.166;3.640;2024-01-11T08:59:09;103229.13;;;-0.58;100.00
74103;BME280;62853;46.166;3.640;2024-01-11T09:01:35;103231.88;;;-0.53;100.00
74103;BME280;62853;46.166;3.640;2024-01-11T09:04:01;103240.69;;;-0.47;100.00
74103;BME280;62853;46.166;3.640;2024-01-11T09:06:27;103238.41;;;-0.36;100.00
74103;BME280;62853;46.166;3.640;2024-01-11T09:08:53;103237.09;;;-0.22;100.00
74103;BME280;62853;46.166;3.640;2024-01-11T09:11:18;103253.03;;;-0.08;100.00
74103;BME280;62853;46.166;3.640;2024-01-11T09:13:43;103272.41;;;0.07;100.00
74103;BME280;62853;46.166;3.640;2024-01-11T09:16:09;103262.38;;;0.17;100.00
74103;BME280;62853;46.166;3.640;2024-01-11T09:18:34;103255.88;;;0.33;100.00
74103;BME280;62853;46.166;3.640;2024-01-11T09:21:00;103258.03;;;0.50;100.00
74103;BME280;62853;46.166;3.640;2024-01-11T09:23:26;103258.50;;;0.68;100.00
74103;BME280;62853;46.166;3.640;2024-01-11T09:25:51;103249.66;;;1.32;100.00
74103;BME280;62853;46.166;3.640;2024-01-11T09:28:17;103260.13;;;2.20;100.00
74103;BME280;62853;46.166;3.640;2024-01-11T09:30:42;103259.84;;;2.52;100.00
74103;BME280;62853;46.166;3.640;2024-01-11T09:33:08;103270.09;;;2.44;100.00
74103;BME280;62853;46.166;3.640;2024-01-11T09:35:33;103271.72;;;2.37;100.00
74103;BME280;62853;46.166;3.640;2024-01-11T09:37:58;103273.38;;;2.34;100.00
74103;BME280;62853;46.166;3.640;2024-01-11T09:40:24;103276.66;;;2.23;100.00
74103;BME280;62853;46.166;3.640;2024-01-11T09:42:49;103275.59;;;2.14;100.00
74103;BME280;62853;46.166;3.640;2024-01-11T09:45:16;103278.03;;;2.04;100.00
74103;BME280;62853;46.166;3.640;2024-01-11T09:47:43;103288.25;;;1.97;100.00
74103;BME280;62853;46.166;3.640;2024-01-11T09:50:10;103292.47;;;1.90;100.00
74103;BME280;62853;46.166;3.640;2024-01-11T09:52:41;103294.16;;;1.88;100.00
74103;BME280;62853;46.166;3.640;2024-01-11T09:55:10;103294.31;;;1.96;100.00
74103;BME280;62853;46.166;3.640;2024-01-11T09:57:36;103308.63;;;2.18;100.00
74103;BME280;62853;46.166;3.640;2024-01-11T10:00:05;103309.25;;;2.50;100.00
74103;BME280;62853;46.166;3.640;2024-01-11T10:02:34;103303.41;;;2.62;100.00
74103;BME280;62853;46.166;3.640;2024-01-11T10:04:59;103315.66;;;2.69;100.00
74103;BME280;62853;46.166;3.640;2024-01-11T10:07:25;103305.28;;;2.71;100.00
74103;BME280;62853;46.166;3.640;2024-01-11T10:09:51;103309.56;;;2.67;100.00
74103;BME280;62853;46.166;3.640;2024-01-11T10:12:20;103312.13;;;2.66;100.00
74103;BME280;62853;46.166;3.640;2024-01-11T10:14:48;103303.38;;;2.60;100.00
74103;BME280;62853;46.166;3.640;2024-01-11T10:17:14;103309.31;;;2.53;100.00
74103;BME280;62853;46.166;3.640;2024-01-11T10:19:39;103316.16;;;2.48;100.00
74103;BME280;62853;46.166;3.640;2024-01-11T10:22:04;103305.59;;;2.40;100.00
74103;BME280;62853;46.166;3.640;2024-01-11T10:24:30;103302.88;;;2.33;100.00
74103;BME280;62853;46.166;3.640;2024-01-11T10:26:56;103305.31;;;2.25;100.00
74103;BME280;62853;46.166;3.640;2024-01-11T10:29:22;103308.66;;;2.19;100.00
74103;BME280;62853;46.166;3.640;2024-01-11T10:31:49;103305.09;;;2.14;100.00
74103;BME280;62853;46.166;3.640;2024-01-11T10:34:15;103311.94;;;2.11;100.00
74103;BME280;62853;46.166;3.640;2024-01-11T10:36:41;103309.34;;;2.09;100.00
74103;BME280;62853;46.166;3.640;2024-01-11T10:39:07;103292.94;;;2.13;100.00
74103;BME280;62853;46.166;3.640;2024-01-11T10:41:40;103295.66;;;2.19;100.00
74103;BME280;62853;46.166;3.640;2024-01-11T10:44:18;103307.06;;;2.28;100.00
74103;BME280;62853;46.166;3.640;2024-01-11T10:46:45;103305.53;;;2.37;100.00
74103;BME280;62853;46.166;3.640;2024-01-11T10:49:11;103311.81;;;2.49;100.00
74103;BME280;62853;46.166;3.640;2024-01-11T10:51:43;103315.53;;;2.62;100.00
74103;BME280;62853;46.166;3.640;2024-01-11T10:54:10;103317.47;;;2.73;100.00
74103;BME280;62853;46.166;3.640;2024-01-11T10:56:36;103319.38;;;2.82;100.00
74103;BME280;62853;46.166;3.640;2024-01-11T10:59:04;103316.97;;;2.94;100.00
74103;BME280;62853;46.166;3.640;2024-01-11T11:01:30;103325.78;;;3.03;100.00
74103;BME280;62853;46.166;3.640;2024-01-11T11:03:56;103315.50;;;3.12;100.00
74103;BME280;62853;46.166;3.640;2024-01-11T11:06:23;103316.50;;;3.20;100.00
74103;BME280;62853;46.166;3.640;2024-01-11T11:08:50;103316.69;;;3.31;100.00
74103;BME280;62853;46.166;3.640;2024-01-11T11:11:17;103316.81;;;3.40;100.00
74103;BME280;62853;46.166;3.640;2024-01-11T11:13:46;103315.22;;;3.48;100.00
74103;BME280;62853;46.166;3.640;2024-01-11T11:16:15;103313.59;;;3.57;100.00
74103;BME280;62853;46.166;3.640;2024-01-11T11:18:40;103315.41;;;3.62;100.00
74103;BME280;62853;46.166;3.640;2024-01-11T11:21:09;103321.59;;;3.70;100.00
74103;BME280;62853;46.166;3.640;2024-01-11T11:23:37;103317.34;;;3.77;100.00
74103;BME280;62853;46.166;3.640;2024-01-11T11:26:05;103317.50;;;3.88;100.00
74103;BME280;62853;46.166;3.640;2024-01-11T11:28:32;103320.25;;;4.00;100.00
74103;BME280;62853;46.166;3.640;2024-01-11T11:31:00;103316.09;;;4.16;100.00
74103;BME280;62853;46.166;3.640;2024-01-11T11:33:28;103319.81;;;4.35;100.00
74103;BME280;62853;46.166;3.640;2024-01-11T11:35:57;103331.31;;;4.53;100.00
74103;BME280;62853;46.166;3.640;2024-01-11T11:38:26;103334.91;;;4.67;100.00
74103;BME280;62853;46.166;3.640;2024-01-11T11:40:53;103340.25;;;4.76;100.00
74103;BME280;62853;46.166;3.640;2024-01-11T11:43:19;103327.19;;;4.78;100.00
74103;BME280;62853;46.166;3.640;2024-01-11T11:45:50;103330.69;;;4.80;100.00
74103;BME280;62853;46.166;3.640;2024-01-11T11:51:06;103340.28;;;4.81;100.00
74103;BME280;62853;46.166;3.640;2024-01-11T11:53:38;103342.91;;;4.81;100.00
74103;BME280;62853;46.166;3.640;2024-01-11T11:56:05;103340.31;;;4.82;100.00
74103;BME280;62853;46.166;3.640;2024-01-11T11:58:32;103335.09;;;4.82;100.00
74103;BME280;62853;46.166;3.640;2024-01-11T12:00:59;103330.72;;;4.81;100.00
74103;BME280;62853;46.166;3.640;2024-01-11T12:03:29;103326.34;;;4.80;100.00
74103;BME280;62853;46.166;3.640;2024-01-11T12:05:55;103321.13;;;4.80;100.00
74103;BME280;62853;46.166;3.640;2024-01-11T12:08:21;103320.25;;;4.78;100.00
74103;BME280;62853;46.166;3.640;2024-01-11T12:10:47;103312.41;;;4.78;100.00
74103;BME280;62853;46.166;3.640;2024-01-11T12:13:12;103309.78;;;4.77;100.00
74103;BME280;62853;46.166;3.640;2024-01-11T12:15:38;103309.78;;;4.77;100.00
74103;BME280;62853;46.166;3.640;2024-01-11T12:18:04;103319.41;;;4.81;100.00
74103;BME280;62853;46.166;3.640;2024-01-11T12:20:32;103306.38;;;4.82;100.00
74103;BME280;62853;46.166;3.640;2024-01-11T12:22:58;103313.38;;;4.88;100.00
74103;BME280;62853;46.166;3.640;2024-01-11T12:25:24;103303.00;;;4.96;100.00
74103;BME280;62853;46.166;3.640;2024-01-11T12:27:49;103299.56;;;5.01;100.00
74103;BME280;62853;46.166;3.640;2024-01-11T12:30:17;103293.47;;;5.06;100.00
74103;BME280;62853;46.166;3.640;2024-01-11T12:32:43;103290.91;;;5.10;100.00
74103;BME280;62853;46.166;3.640;2024-01-11T12:35:09;103286.56;;;5.14;100.00
74103;BME280;62853;46.166;3.640;2024-01-11T12:37:34;103284.88;;;5.19;100.00
74103;BME280;62853;46.166;3.640;2024-01-11T12:40:00;103284.91;;;5.24;100.00
74103;BME280;62853;46.166;3.640;2024-01-11T12:42:26;103285.81;;;5.29;100.00